Time;durP1;ratioP1;P1;durP2;ratioP2;P2;SDS_P1;SDS_P2;PMS_P1;PMS_P2;Temp;Humidity;BMP_temperature;BMP_pressure;BME280_temperature;BME280_humidity;BME280_pressure;Samples;Min_cycle;Max_cycle;Signal;HPM_P1;HPM_P2
2021/03/20 00:00:25;;;;;;;4.03;0.50;;;-1.80;99.90;;;;;;5036466;28;20186;-68
2021/03/20 00:02:51;;;;;;;0.20;0.20;;;-1.70;99.90;;;;;;5029614;28;20274;-68
2021/03/20 00:05:17;;;;;;;0.53;0.30;;;-1.60;99.90;;;;;;5028535;28;20324;-66
2021/03/20 00:07:43;;;;;;;0.57;0.30;;;-1.60;99.90;;;;;;5036634;28;20194;-67
2021/03/20 00:10:12;;;;;;;0.33;0.33;;;-1.60;99.90;;;;;;5028617;28;20202;-66
2021/03/20 00:12:38;;;;;;;0.20;0.20;;;-1.70;99.90;;;;;;5034084;28;20810;-69
2021/03/20 00:15:07;;;;;;;0.40;0.30;;;-1.70;99.90;;;;;;5033823;28;20612;-65
2021/03/20 00:17:33;;;;;;;0.10;0.10;;;-1.80;99.90;;;;;;5027766;28;20200;-68
2021/03/20 00:19:58;;;;;;;0.40;0.40;;;-1.80;99.90;;;;;;5034646;28;20710;-66
2021/03/20 00:22:24;;;;;;;0.17;0.17;;;-1.80;99.90;;;;;;5035655;28;20186;-66
2021/03/20 00:24:50;;;;;;;0.30;0.13;;;-1.80;99.90;;;;;;5032826;28;20775;-68
2021/03/20 00:27:15;;;;;;;1.20;0.60;;;-1.70;99.90;;;;;;5027995;28;20213;-67
2021/03/20 00:29:41;;;;;;;0.50;0.50;;;-1.70;99.90;;;;;;5025833;28;20203;-67
2021/03/20 00:32:07;;;;;;;3.87;0.97;;;-1.70;99.90;;;;;;5027768;28;20185;-67
2021/03/20 00:34:33;;;;;;;1.53;1.43;;;-1.70;99.90;;;;;;5023415;28;20661;-66
2021/03/20 00:36:58;;;;;;;0.47;0.47;;;-1.60;99.90;;;;;;5023163;28;20193;-68
2021/03/20 00:39:24;;;;;;;0.60;0.53;;;-1.60;99.90;;;;;;5027346;28;20183;-68
2021/03/20 00:41:50;;;;;;;0.73;0.67;;;-1.50;99.90;;;;;;5034128;28;20300;-68
2021/03/20 00:44:16;;;;;;;0.67;0.50;;;-1.50;99.90;;;;;;5036841;28;20206;-67
2021/03/20 00:46:42;;;;;;;0.60;0.50;;;-1.50;99.90;;;;;;5039526;28;20232;-68
2021/03/20 00:49:08;;;;;;;0.30;0.30;;;-1.50;99.90;;;;;;5036639;28;20175;-66
2021/03/20 00:51:33;;;;;;;0.83;0.67;;;-1.50;99.90;;;;;;5039424;28;20182;-68
2021/03/20 00:53:59;;;;;;;0.47;0.47;;;-1.50;99.90;;;;;;5040343;28;20697;-66
2021/03/20 00:56:25;;;;;;;1.60;0.63;;;-1.60;99.90;;;;;;5035000;28;20190;-66
2021/03/20 00:58:51;;;;;;;0.60;0.60;;;-1.70;99.90;;;;;;5032092;28;20553;-68
2021/03/20 01:01:20;;;;;;;0.70;0.63;;;-1.80;99.90;;;;;;5036672;28;20235;-66
2021/03/20 01:03:47;;;;;;;2.37;0.87;;;-1.80;99.90;;;;;;5031410;28;20203;-67
2021/03/20 01:06:19;;;;;;;1.13;0.80;;;-1.90;99.90;;;;;;5041658;28;20193;-68
2021/03/20 01:08:45;;;;;;;1.70;0.83;;;-2.00;99.90;;;;;;5031941;28;20179;-68
2021/03/20 01:11:12;;;;;;;1.57;1.10;;;-2.00;99.90;;;;;;5029327;28;20577;-66
2021/03/20 01:13:38;;;;;;;0.73;0.43;;;-2.10;99.90;;;;;;5029297;28;20264;-66
2021/03/20 01:16:04;;;;;;;0.40;0.40;;;-2.10;99.90;;;;;;5031225;28;20623;-68
2021/03/20 01:18:30;;;;;;;1.33;0.97;;;-2.10;99.90;;;;;;5032853;28;20265;-66
2021/03/20 01:20:56;;;;;;;3.60;2.00;;;-2.10;99.90;;;;;;5030830;28;20273;-65
2021/03/20 01:23:22;;;;;;;1.90;1.23;;;-2.10;99.90;;;;;;5032178;28;20540;-68
2021/03/20 01:25:48;;;;;;;0.93;0.70;;;-2.20;99.90;;;;;;5032114;28;20649;-66
2021/03/20 01:28:13;;;;;;;1.50;0.60;;;-2.20;99.90;;;;;;5039088;28;20209;-68
2021/03/20 01:30:42;;;;;;;0.70;0.53;;;-2.30;99.90;;;;;;5027020;28;20210;-66
2021/03/20 01:33:09;;;;;;;2.90;0.90;;;-2.30;99.90;;;;;;5027400;28;20178;-66
2021/03/20 01:35:36;;;;;;;0.60;0.60;;;-2.40;99.90;;;;;;5034536;28;20182;-69
2021/03/20 01:38:05;;;;;;;1.07;0.60;;;-2.30;99.90;;;;;;5035020;28;20270;-66
2021/03/20 01:40:53;;;;;;;0.47;0.37;;;-2.40;99.90;;;;;;5026402;28;20226;-66
2021/03/20 01:43:21;;;;;;;0.30;0.30;;;-2.40;99.90;;;;;;5033114;28;20272;-67
2021/03/20 01:45:47;;;;;;;0.40;0.40;;;-2.40;99.90;;;;;;5026852;28;20566;-68
2021/03/20 01:48:26;;;;;;;0.50;0.50;;;-2.40;99.90;;;;;;5032594;28;20191;-68
2021/03/20 01:50:55;;;;;;;0.30;0.30;;;-2.50;99.90;;;;;;5025709;28;20198;-66
2021/03/20 01:53:32;;;;;;;0.70;0.60;;;-2.40;99.90;;;;;;5034519;28;20225;-68
2021/03/20 01:55:59;;;;;;;1.53;0.90;;;-2.40;99.90;;;;;;5026832;28;20554;-66
2021/03/20 01:58:26;;;;;;;1.00;0.60;;;-2.50;99.90;;;;;;5025137;28;20183;-66
2021/03/20 02:01:03;;;;;;;0.20;0.20;;;-2.40;99.90;;;;;;5036263;28;20217;-67
2021/03/20 02:03:29;;;;;;;0.97;0.37;;;-2.40;99.90;;;;;;5027798;28;20252;-67
2021/03/20 02:05:55;;;;;;;1.27;0.60;;;-2.50;99.90;;;;;;5034875;28;20266;-65
2021/03/20 02:08:22;;;;;;;0.73;0.73;;;-2.50;99.90;;;;;;5036383;28;20252;-66
2021/03/20 02:10:49;;;;;;;0.60;0.30;;;-2.50;99.90;;;;;;5025910;28;20217;-66
2021/03/20 02:13:50;;;;;;;0.50;0.50;;;-2.40;99.90;;;;;;5034996;28;20182;-68
2021/03/20 02:16:22;;;;;;;0.27;0.27;;;-2.40;99.90;;;;;;5034508;28;20194;-67
2021/03/20 02:18:51;;;;;;;0.90;0.70;;;-2.40;99.90;;;;;;5037059;28;20187;-68
2021/03/20 02:21:24;;;;;;;1.53;0.67;;;-2.40;99.90;;;;;;5038613;28;20224;-68
2021/03/20 02:24:47;;;;;;;0.47;0.47;;;-2.50;99.90;;;;;;5033082;28;20245;-67
2021/03/20 02:27:41;;;;;;;1.13;0.57;;;-2.50;99.90;;;;;;5015903;28;21263;-65
2021/03/20 02:30:44;;;;;;;0.30;0.30;;;-2.40;99.90;;;;;;5031062;28;20641;-66
2021/03/20 02:33:29;;;;;;;0.43;0.43;;;-2.40;99.90;;;;;;5030109;28;20202;-67
2021/03/20 02:36:13;;;;;;;0.53;0.53;;;-2.40;99.90;;;;;;5027280;28;20178;-67
2021/03/20 02:39:01;;;;;;;1.93;1.33;;;-2.50;99.90;;;;;;5035533;28;20194;-67
2021/03/20 02:41:41;;;;;;;0.30;0.30;;;-2.40;99.90;;;;;;5031691;28;20190;-67
2021/03/20 02:44:15;;;;;;;0.20;0.20;;;-2.50;99.90;;;;;;5029423;28;20677;-67
2021/03/20 02:46:53;;;;;;;0.50;0.40;;;-2.50;99.90;;;;;;5027286;28;20221;-66
2021/03/20 02:49:54;;;;;;;2.10;0.40;;;-2.50;99.90;;;;;;5029315;28;20221;-67
2021/03/20 02:52:43;;;;;;;0.40;0.33;;;-2.60;99.90;;;;;;5036568;28;20646;-68
2021/03/20 02:55:20;;;;;;;0.33;0.30;;;-2.40;99.90;;;;;;5036449;28;20684;-67
2021/03/20 02:58:08;;;;;;;0.20;0.20;;;-2.50;99.90;;;;;;5030235;28;20690;-67
2021/03/20 03:00:41;;;;;;;0.30;0.30;;;-2.60;99.90;;;;;;5033585;28;20191;-67
2021/03/20 03:03:09;;;;;;;0.53;0.30;;;-2.60;99.90;;;;;;5032161;28;20190;-68
2021/03/20 03:05:42;;;;;;;0.50;0.50;;;-2.60;99.90;;;;;;5025761;28;20253;-66
2021/03/20 03:08:17;;;;;;;0.87;0.30;;;-2.60;99.90;;;;;;5026615;28;20314;-66
2021/03/20 03:11:05;;;;;;;0.77;0.60;;;-2.50;99.90;;;;;;5024215;28;20253;-68
2021/03/20 03:13:35;;;;;;;1.23;0.50;;;-2.40;99.90;;;;;;5031233;28;20660;-66
2021/03/20 03:16:26;;;;;;;2.60;1.13;;;-2.30;99.90;;;;;;5025959;28;20210;-67
2021/03/20 03:18:58;;;;;;;0.53;0.53;;;-2.40;99.90;;;;;;5025180;28;20179;-66
2021/03/20 03:21:28;;;;;;;1.73;0.30;;;-2.40;99.90;;;;;;5035188;28;20324;-66
2021/03/20 03:23:55;;;;;;;0.30;0.30;;;-2.40;99.90;;;;;;5029143;28;20241;-66
2021/03/20 03:26:35;;;;;;;0.47;0.37;;;-2.40;99.90;;;;;;5035885;28;20190;-68
2021/03/20 03:29:09;;;;;;;0.63;0.63;;;-2.40;99.90;;;;;;5034588;28;20235;-68
2021/03/20 03:31:53;;;;;;;0.50;0.40;;;-2.50;99.90;;;;;;5032035;28;20263;-66
2021/03/20 03:34:50;;;;;;;0.30;0.20;;;-2.60;99.90;;;;;;5032851;28;20251;-67
2021/03/20 03:37:27;;;;;;;0.40;0.40;;;-2.50;99.90;;;;;;5029826;28;20641;-66
2021/03/20 03:39:56;;;;;;;1.60;1.03;;;-2.60;99.90;;;;;;5030451;28;20194;-66
2021/03/20 03:42:23;;;;;;;0.20;0.20;;;-2.70;99.90;;;;;;5031708;28;20606;-65
2021/03/20 03:44:52;;;;;;;2.27;0.53;;;-2.70;99.90;;;;;;5033713;28;20688;-66
2021/03/20 03:47:24;;;;;;;0.53;0.53;;;-2.70;99.90;;;;;;5028977;28;20194;-68
2021/03/20 03:49:54;;;;;;;0.40;0.40;;;-2.80;99.90;;;;;;5035073;28;20557;-67
2021/03/20 03:52:21;;;;;;;0.47;0.43;;;-2.90;99.90;;;;;;5025643;28;20202;-66
2021/03/20 03:54:48;;;;;;;3.50;0.57;;;-2.80;99.90;;;;;;5030725;28;20211;-67
2021/03/20 03:57:23;;;;;;;0.53;0.50;;;-2.70;99.90;;;;;;5023879;28;20626;-65
2021/03/20 04:00:18;;;;;;;0.40;0.40;;;-2.80;99.90;;;;;;5026418;28;20532;-67
2021/03/20 04:02:54;;;;;;;0.63;0.50;;;-2.90;99.90;;;;;;5029322;28;20194;-66
2021/03/20 04:05:30;;;;;;;0.43;0.30;;;-2.90;99.90;;;;;;5027088;28;20682;-65
2021/03/20 04:08:19;;;;;;;0.33;0.30;;;-2.90;99.90;;;;;;5032717;28;20181;-68
2021/03/20 04:10:52;;;;;;;0.37;0.37;;;-2.90;99.90;;;;;;5034504;28;20813;-67
2021/03/20 04:13:47;;;;;;;0.23;0.23;;;-2.90;99.90;;;;;;5028042;28;20243;-65
2021/03/20 04:16:29;;;;;;;0.70;0.60;;;-2.90;99.90;;;;;;5030518;28;20721;-67
2021/03/20 04:19:06;;;;;;;1.67;0.57;;;-2.80;99.90;;;;;;5027821;28;20707;-65
2021/03/20 04:21:38;;;;;;;0.40;0.40;;;-2.80;99.90;;;;;;5028462;28;20705;-66
2021/03/20 04:24:07;;;;;;;0.27;0.27;;;-2.80;99.90;;;;;;5028973;28;20681;-68
2021/03/20 04:26:40;;;;;;;0.50;0.50;;;-2.90;99.90;;;;;;5024386;28;20737;-66
2021/03/20 04:29:18;;;;;;;0.23;0.23;;;-3.00;99.90;;;;;;5033067;28;20217;-66
2021/03/20 04:31:56;;;;;;;0.50;0.40;;;-2.90;99.90;;;;;;5031113;28;20186;-66
2021/03/20 04:34:42;;;;;;;0.23;0.23;;;-3.00;99.90;;;;;;5024643;28;20243;-67
2021/03/20 04:37:14;;;;;;;0.43;0.30;;;-3.00;99.90;;;;;;5028831;28;20335;-67
2021/03/20 04:39:47;;;;;;;0.30;0.30;;;-3.10;99.90;;;;;;5025682;28;20198;-67
2021/03/20 04:42:16;;;;;;;0.33;0.33;;;-3.30;99.90;;;;;;5027667;28;20186;-68
2021/03/20 04:44:42;;;;;;;0.37;0.37;;;-3.30;99.90;;;;;;5029072;28;20217;-67
2021/03/20 04:47:13;;;;;;;0.80;0.57;;;-3.40;99.90;;;;;;5025333;28;20512;-67
2021/03/20 04:49:47;;;;;;;0.40;0.40;;;-3.40;99.90;;;;;;5059994;28;20206;-65
2021/03/20 04:52:30;;;;;;;6.10;2.27;;;-3.50;99.90;;;;;;5023710;28;20190;-67
2021/03/20 04:55:02;;;;;;;0.53;0.50;;;-3.40;99.90;;;;;;5023286;28;20207;-67
2021/03/20 04:57:30;;;;;;;1.03;0.70;;;-3.50;99.90;;;;;;5026606;28;20780;-65
2021/03/20 05:00:20;;;;;;;0.80;0.70;;;-3.30;99.90;;;;;;5027108;28;20221;-65
2021/03/20 05:02:53;;;;;;;2.23;0.90;;;-3.40;99.90;;;;;;5026673;28;20186;-66
2021/03/20 05:05:31;;;;;;;0.60;0.40;;;-3.30;99.90;;;;;;5024156;28;20206;-66
2021/03/20 05:08:03;;;;;;;0.37;0.37;;;-3.30;99.90;;;;;;5028312;28;20252;-67
2021/03/20 05:10:54;;;;;;;3.50;1.37;;;-3.30;99.90;;;;;;5034387;28;20263;-68
2021/03/20 05:13:46;;;;;;;0.93;0.60;;;-3.20;99.90;;;;;;5023883;28;20205;-66
2021/03/20 05:16:18;;;;;;;0.30;0.30;;;-3.10;99.90;;;;;;5031629;28;20302;-66
2021/03/20 05:18:45;;;;;;;0.60;0.50;;;-3.10;99.90;;;;;;5023896;28;20204;-68
2021/03/20 05:21:18;;;;;;;0.63;0.40;;;-3.20;99.90;;;;;;5028830;28;20841;-66
2021/03/20 05:23:44;;;;;;;1.07;0.63;;;-3.20;99.90;;;;;;5027804;28;20679;-66
2021/03/20 05:26:11;;;;;;;0.50;0.50;;;-3.20;99.90;;;;;;5032579;28;20669;-67
2021/03/20 05:28:37;;;;;;;0.70;0.43;;;-3.00;99.90;;;;;;5036843;28;20186;-65
2021/03/20 05:31:03;;;;;;;0.50;0.50;;;-2.90;99.90;;;;;;5034285;28;20272;-68
2021/03/20 05:33:30;;;;;;;0.57;0.53;;;-3.00;99.90;;;;;;5034013;28;20721;-67
2021/03/20 05:35:55;;;;;;;0.77;0.77;;;-2.90;99.90;;;;;;5038801;28;20581;-68
2021/03/20 05:38:21;;;;;;;1.10;1.00;;;-2.90;99.90;;;;;;5037706;28;20201;-67
2021/03/20 05:40:47;;;;;;;1.37;0.70;;;-2.80;99.90;;;;;;5032435;28;20187;-65
2021/03/20 05:43:47;;;;;;;0.80;0.80;;;-2.80;99.90;;;;;;5027309;28;20213;-68
2021/03/20 05:46:37;;;;;;;0.60;0.60;;;-2.80;99.90;;;;;;5032443;28;20209;-68
2021/03/20 05:49:11;;;;;;;0.90;0.70;;;-2.80;99.90;;;;;;5026758;28;20653;-66
2021/03/20 05:52:04;;;;;;;1.20;0.70;;;-2.70;99.90;;;;;;5025614;28;20207;-67
2021/03/20 05:54:48;;;;;;;2.83;0.63;;;-2.60;99.90;;;;;;5033105;28;20276;-67
2021/03/20 05:57:17;;;;;;;0.40;0.40;;;-2.70;99.90;;;;;;5028777;28;20186;-66
2021/03/20 06:00:04;;;;;;;0.50;0.50;;;-2.60;99.90;;;;;;5032970;28;20636;-66
2021/03/20 06:02:58;;;;;;;1.10;0.63;;;-2.40;99.90;;;;;;5028324;28;20324;-66
2021/03/20 06:05:36;;;;;;;0.40;0.40;;;-2.50;99.90;;;;;;5029352;28;20222;-67
2021/03/20 06:08:22;;;;;;;0.93;0.87;;;-2.40;99.90;;;;;;5028588;28;20257;-67
2021/03/20 06:11:27;;;;;;;0.67;0.57;;;-2.50;99.90;;;;;;5032962;28;20206;-68
2021/03/20 06:14:18;;;;;;;0.70;0.70;;;-2.50;99.90;;;;;;5033503;28;20309;-68
2021/03/20 06:17:06;;;;;;;0.77;0.63;;;-2.50;99.90;;;;;;5038223;28;20185;-67
2021/03/20 06:19:50;;;;;;;0.80;0.80;;;-2.50;99.90;;;;;;5032830;28;20859;-67
2021/03/20 06:22:34;;;;;;;0.83;0.60;;;-2.40;99.90;;;;;;5025609;28;20642;-67
2021/03/20 06:25:15;;;;;;;1.07;0.97;;;-2.20;99.90;;;;;;5032668;28;20198;-68
2021/03/20 06:27:45;;;;;;;0.50;0.50;;;-2.30;99.90;;;;;;5042340;28;20183;-68
2021/03/20 06:30:30;;;;;;;0.90;0.80;;;-2.20;99.90;;;;;;5038816;28;20669;-66
2021/03/20 06:33:01;;;;;;;0.90;0.70;;;-2.20;99.90;;;;;;5033468;28;20236;-67
2021/03/20 06:35:50;;;;;;;0.93;0.40;;;-2.10;99.90;;;;;;5034483;28;20174;-66
2021/03/20 06:38:32;;;;;;;4.83;1.10;;;-2.00;99.90;;;;;;5033505;28;20186;-67
2021/03/20 06:41:28;;;;;;;1.40;0.50;;;-2.00;99.90;;;;;;5038142;28;20191;-67
2021/03/20 06:43:59;;;;;;;0.23;0.23;;;-1.80;99.90;;;;;;5035603;28;20281;-66
2021/03/20 06:46:34;;;;;;;0.80;0.80;;;-1.70;99.90;;;;;;5034993;28;20210;-67
2021/03/20 06:49:00;;;;;;;0.30;0.30;;;-1.60;99.90;;;;;;5035320;28;20189;-67
2021/03/20 06:51:28;;;;;;;1.00;0.90;;;-1.50;99.90;;;;;;5028937;28;20218;-66
2021/03/20 06:53:57;;;;;;;1.43;1.23;;;-1.20;99.90;;;;;;5042634;28;20194;-67
2021/03/20 06:56:24;;;;;;;0.43;0.30;;;-1.00;99.90;;;;;;5032306;28;20221;-67
2021/03/20 06:58:49;;;;;;;0.90;0.60;;;-0.60;99.90;;;;;;5036278;28;20704;-68
2021/03/20 07:01:39;;;;;;;1.23;1.13;;;-0.30;99.90;;;;;;5030556;28;20201;-67
2021/03/20 07:04:22;;;;;;;0.70;0.60;;;-0.30;99.90;;;;;;5030071;28;20203;-66
2021/03/20 07:07:09;;;;;;;0.83;0.57;;;-0.20;99.90;;;;;;5031125;28;20597;-67
2021/03/20 07:09:39;;;;;;;2.73;0.70;;;-0.20;99.90;;;;;;5027370;28;20189;-66
2021/03/20 07:12:11;;;;;;;1.13;0.80;;;-0.10;99.90;;;;;;5024353;28;20194;-66
2021/03/20 07:14:49;;;;;;;0.60;0.60;;;0.10;99.90;;;;;;5045345;28;20257;-66
2021/03/20 07:17:24;;;;;;;1.50;0.57;;;0.20;99.90;;;;;;5026632;28;20187;-66
2021/03/20 07:20:08;;;;;;;0.53;0.50;;;0.20;99.90;;;;;;5031095;28;20706;-67
2021/03/20 07:22:36;;;;;;;0.33;0.33;;;0.20;99.90;;;;;;5036271;28;20175;-67
2021/03/20 07:25:24;;;;;;;1.27;0.97;;;0.20;99.90;;;;;;5034182;28;20207;-66
2021/03/20 07:27:53;;;;;;;1.03;0.70;;;0.40;99.90;;;;;;5024792;28;20218;-67
2021/03/20 07:30:34;;;;;;;1.93;1.00;;;0.70;99.90;;;;;;5025120;28;20214;-67
2021/03/20 07:33:00;;;;;;;0.67;0.67;;;1.00;99.90;;;;;;5024601;28;20590;-66
2021/03/20 07:35:33;;;;;;;0.83;0.83;;;1.30;99.90;;;;;;5026180;28;20684;-67
2021/03/20 07:38:14;;;;;;;1.13;0.80;;;1.60;99.90;;;;;;5027152;28;20194;-67
2021/03/20 07:40:40;;;;;;;1.37;0.57;;;1.80;99.90;;;;;;5032288;28;20187;-68
2021/03/20 07:43:14;;;;;;;2.00;0.77;;;1.90;99.90;;;;;;5028068;28;20206;-67
2021/03/20 07:45:40;;;;;;;1.03;0.70;;;2.20;99.90;;;;;;5045215;28;20238;-67
2021/03/20 07:48:16;;;;;;;0.60;0.50;;;2.30;99.90;;;;;;5032928;28;20175;-67
2021/03/20 07:51:07;;;;;;;0.67;0.67;;;2.20;99.90;;;;;;5032572;28;20673;-67
2021/03/20 07:53:49;;;;;;;0.60;0.57;;;1.80;99.90;;;;;;5035082;28;20210;-67
2021/03/20 07:56:33;;;;;;;0.57;0.53;;;1.60;99.90;;;;;;5035479;28;20672;-67
2021/03/20 07:59:26;;;;;;;0.80;0.73;;;1.80;99.90;;;;;;5037430;28;20179;-67
2021/03/20 08:01:57;;;;;;;0.50;0.50;;;2.00;99.90;;;;;;5024115;28;20187;-68
2021/03/20 08:04:52;;;;;;;0.50;0.47;;;2.00;99.90;;;;;;5034076;28;20291;-67
2021/03/20 08:07:38;;;;;;;0.37;0.37;;;2.10;99.90;;;;;;5034509;28;20264;-67
2021/03/20 08:10:22;;;;;;;0.70;0.70;;;2.10;99.90;;;;;;5032622;28;20374;-67
2021/03/20 08:12:50;;;;;;;2.00;0.67;;;2.30;99.90;;;;;;5034080;28;20699;-68
2021/03/20 08:15:22;;;;;;;0.83;0.73;;;2.50;99.90;;;;;;5034843;28;20203;-68
2021/03/20 08:17:48;;;;;;;0.43;0.40;;;2.60;99.90;;;;;;5023957;28;20178;-68
2021/03/20 08:20:18;;;;;;;1.00;0.40;;;2.60;99.90;;;;;;5043487;28;20665;-68
2021/03/20 08:22:57;;;;;;;0.50;0.50;;;2.50;99.90;;;;;;5024704;28;20676;-67
2021/03/20 08:25:37;;;;;;;1.07;0.37;;;2.50;99.90;;;;;;5024384;28;20205;-66
2021/03/20 08:28:24;;;;;;;0.37;0.37;;;2.40;99.90;;;;;;5034819;28;20193;-66
2021/03/20 08:31:24;;;;;;;0.43;0.43;;;2.40;99.90;;;;;;5022725;28;20194;-67
2021/03/20 08:33:49;;;;;;;0.53;0.40;;;2.60;99.90;;;;;;5026952;28;20332;-68
2021/03/20 08:36:26;;;;;;;1.73;0.70;;;2.80;99.90;;;;;;5024490;28;20258;-67
2021/03/20 08:39:00;;;;;;;0.70;0.70;;;2.70;99.90;;;;;;5027100;28;20182;-67
2021/03/20 08:41:50;;;;;;;2.43;0.90;;;2.80;99.90;;;;;;5033850;28;20810;-69
2021/03/20 08:44:32;;;;;;;1.90;1.70;;;3.10;99.90;;;;;;5024007;28;20210;-67
2021/03/20 08:47:10;;;;;;;0.80;0.70;;;3.30;99.90;;;;;;5029235;28;20179;-67
2021/03/20 08:49:44;;;;;;;1.77;1.13;;;3.30;99.90;;;;;;5026407;28;20183;-67
2021/03/20 08:52:27;;;;;;;2.47;1.60;;;3.70;99.90;;;;;;5028553;28;20178;-68
2021/03/20 08:55:12;;;;;;;1.63;1.00;;;3.80;99.90;;;;;;5029587;28;20195;-67
2021/03/20 08:58:02;;;;;;;5.83;1.50;;;3.80;99.90;;;;;;5025827;28;20189;-70
2021/03/20 09:00:40;;;;;;;3.33;1.60;;;3.90;99.90;;;;;;5027495;28;20649;-68
2021/03/20 09:03:14;;;;;;;2.80;1.43;;;4.00;99.90;;;;;;5033699;28;20190;-67
2021/03/20 09:05:47;;;;;;;1.50;1.00;;;4.30;99.90;;;;;;5027838;28;20182;-66
2021/03/20 09:08:24;;;;;;;2.37;1.53;;;4.60;99.90;;;;;;5036467;28;20171;-66
2021/03/20 09:11:20;;;;;;;0.83;0.83;;;4.70;99.90;;;;;;5032373;28;20216;-66
2021/03/20 09:13:52;;;;;;;1.30;1.17;;;4.70;99.90;;;;;;5041614;22;20320;-85
2021/03/20 09:16:31;;;;;;;2.33;1.53;;;4.90;99.90;;;;;;5027829;28;20190;-85
2021/03/20 09:19:01;;;;;;;1.57;1.40;;;4.80;99.90;;;;;;5012424;28;20186;-84
2021/03/20 09:21:28;;;;;;;1.50;1.07;;;4.90;99.90;;;;;;5012062;28;20179;-84
2021/03/20 09:23:54;;;;;;;1.63;1.07;;;5.00;99.90;;;;;;5013375;28;20760;-84
2021/03/20 09:26:46;;;;;;;0.80;0.73;;;5.10;99.90;;;;;;5012251;28;20661;-83
2021/03/20 09:29:16;;;;;;;0.97;0.80;;;5.00;99.90;;;;;;5012188;28;20297;-84
2021/03/20 09:31:54;;;;;;;0.90;0.73;;;5.50;99.90;;;;;;5011253;28;20199;-83
2021/03/20 09:34:37;;;;;;;0.70;0.70;;;5.80;99.90;;;;;;5011362;28;20277;-82
2021/03/20 09:37:18;;;;;;;1.03;0.80;;;5.60;99.90;;;;;;5011896;28;20210;-83
2021/03/20 09:39:51;;;;;;;1.67;0.90;;;5.60;99.90;;;;;;5014308;28;20187;-83
2021/03/20 09:42:35;;;;;;;0.93;0.87;;;5.80;99.90;;;;;;5010594;28;20209;-83
2021/03/20 09:45:12;;;;;;;1.63;1.20;;;5.60;99.90;;;;;;5027464;28;20205;-83
2021/03/20 09:47:41;;;;;;;3.00;1.40;;;5.30;99.90;;;;;;5011191;28;20279;-81
2021/03/20 09:50:18;;;;;;;1.60;1.30;;;5.30;99.90;;;;;;5028858;28;20206;-82
2021/03/20 09:53:10;;;;;;;0.77;0.73;;;5.70;99.90;;;;;;5010667;28;20193;-82
2021/03/20 09:55:39;;;;;;;1.17;1.07;;;5.90;98.90;;;;;;4999643;28;20223;-83
2021/03/20 09:58:20;;;;;;;1.00;0.90;;;5.90;99.90;;;;;;5009562;28;20194;-83
2021/03/20 10:00:52;;;;;;;0.83;0.77;;;5.70;99.90;;;;;;5028081;28;20645;-83
2021/03/20 10:03:40;;;;;;;1.23;0.93;;;5.60;99.90;;;;;;5010169;28;20183;-84
2021/03/20 10:06:26;;;;;;;0.83;0.80;;;5.60;99.90;;;;;;5011138;28;20217;-83
2021/03/20 10:09:11;;;;;;;1.63;0.70;;;5.90;99.90;;;;;;5010003;28;20178;-83
2021/03/20 10:12:00;;;;;;;2.10;1.17;;;5.50;99.30;;;;;;5028060;28;20203;-83
2021/03/20 10:14:35;;;;;;;2.03;1.67;;;5.10;99.90;;;;;;5025386;28;20211;-83
2021/03/20 10:17:18;;;;;;;1.30;1.00;;;5.50;99.90;;;;;;5010140;28;20174;-84
2021/03/20 10:19:54;;;;;;;2.97;0.80;;;5.60;99.90;;;;;;5025812;28;20186;-84
2021/03/20 10:22:36;;;;;;;1.23;0.73;;;5.70;99.90;;;;;;5028705;28;20221;-84
2021/03/20 10:25:05;;;;;;;1.13;0.60;;;5.70;99.90;;;;;;5031658;28;20191;-84
2021/03/20 10:27:39;;;;;;;2.40;1.20;;;5.50;99.90;;;;;;5011077;28;20195;-84
2021/03/20 10:30:23;;;;;;;1.53;1.03;;;5.80;99.90;;;;;;5011002;28;20210;-84
2021/03/20 10:33:23;;;;;;;2.20;0.73;;;5.70;99.90;;;;;;5010691;28;20201;-86
2021/03/20 10:35:49;;;;;;;2.53;0.80;;;5.70;97.00;;;;;;5011267;28;20906;-84
2021/03/20 10:41:37;;;;;;;3.27;1.60;;;5.10;99.20;;;;;;5004125;28;20210;-84
2021/03/20 10:44:17;;;;;;;2.70;1.53;;;5.30;99.90;;;;;;5027624;28;20199;-84
2021/03/20 10:46:45;;;;;;;1.60;1.30;;;5.70;99.30;;;;;;5026694;28;20726;-83
2021/03/20 10:49:22;;;;;;;0.57;0.57;;;5.70;98.80;;;;;;5009187;28;20175;-84
2021/03/20 10:51:54;;;;;;;1.80;0.70;;;5.90;97.60;;;;;;5011071;28;21042;-85
2021/03/20 10:54:31;;;;;;;0.50;0.50;;;6.00;98.70;;;;;;5027733;28;20191;-85
2021/03/20 10:57:04;;;;;;;4.17;0.77;;;5.70;96.90;;;;;;5009780;28;20167;-84
2021/03/20 10:59:44;;;;;;;0.50;0.50;;;5.50;98.30;;;;;;5026285;28;20183;-85
2021/03/20 11:02:20;;;;;;;2.03;0.90;;;5.30;95.80;;;;;;5008217;28;20445;-85
2021/03/20 11:04:46;;;;;;;0.93;0.83;;;5.60;97.10;;;;;;5008952;28;20684;-85
2021/03/20 11:07:16;;;;;;;0.97;0.57;;;5.90;96.10;;;;;;5026846;28;20194;-79
2021/03/20 11:09:42;;;;;;;0.70;0.50;;;5.90;96.20;;;;;;5006338;28;20175;-86
2021/03/20 11:12:19;;;;;;;0.57;0.43;;;5.80;94.80;;;;;;5005516;28;20228;-87
2021/03/20 11:14:53;;;;;;;0.83;0.60;;;5.50;93.80;;;;;;5004352;28;20225;-86
2021/03/20 11:17:23;;;;;;;0.80;0.77;;;5.50;96.10;;;;;;5005915;28;20873;-87
2021/03/20 11:20:03;;;;;;;0.53;0.33;;;5.70;96.50;;;;;;5005971;28;20183;-87
2021/03/20 11:22:32;;;;;;;0.90;0.60;;;5.50;94.50;;;;;;5006051;28;20197;-85
2021/03/20 11:25:03;;;;;;;0.40;0.40;;;5.40;94.70;;;;;;5006117;28;20703;-85
2021/03/20 11:27:32;;;;;;;0.40;0.40;;;5.60;95.00;;;;;;5005289;28;20286;-86
2021/03/20 11:30:02;;;;;;;0.80;0.60;;;5.60;94.90;;;;;;5024763;28;20226;-86
2021/03/20 11:32:33;;;;;;;0.57;0.40;;;5.70;93.90;;;;;;5006835;28;20237;-85
2021/03/20 11:35:14;;;;;;;1.03;0.97;;;5.40;95.60;;;;;;5007690;28;20226;-85
2021/03/20 11:37:40;;;;;;;0.80;0.50;;;5.40;95.00;;;;;;5006043;28;20175;-86
2021/03/20 11:40:09;;;;;;;0.40;0.40;;;5.30;95.30;;;;;;5006888;28;20183;-86
2021/03/20 11:42:39;;;;;;;0.40;0.40;;;5.20;95.20;;;;;;5005642;28;20274;-86
2021/03/20 11:45:16;;;;;;;1.33;0.90;;;5.30;94.70;;;;;;5006787;28;20294;-85
2021/03/20 11:47:50;;;;;;;1.47;1.10;;;5.40;95.90;;;;;;5004245;28;20179;-85
2021/03/20 11:50:26;;;;;;;1.53;0.63;;;5.50;94.80;;;;;;5006857;28;20284;-85
2021/03/20 11:53:03;;;;;;;2.13;0.90;;;5.50;95.10;;;;;;5006116;28;20182;-86
2021/03/20 11:55:39;;;;;;;0.77;0.50;;;5.60;95.40;;;;;;5004370;28;20434;-85
2021/03/20 11:58:10;;;;;;;0.47;0.47;;;5.60;93.50;;;;;;5005396;28;20179;-87
2021/03/20 12:00:42;;;;;;;0.40;0.40;;;5.50;94.20;;;;;;5005120;28;20217;-85
2021/03/20 12:03:36;;;;;;;1.13;0.53;;;5.50;90.50;;;;;;5004888;28;20262;-85
2021/03/20 12:06:32;;;;;;;1.07;0.97;;;5.40;91.30;;;;;;4999766;28;20667;-86
2021/03/20 12:09:05;;;;;;;0.20;0.20;;;5.60;91.50;;;;;;4991549;28;20210;-86
2021/03/20 12:11:44;;;;;;;0.47;0.47;;;5.60;91.70;;;;;;5007076;28;20280;-85
2021/03/20 12:14:37;;;;;;;1.50;0.73;;;5.40;90.70;;;;;;5007019;28;20206;-87
2021/03/20 12:17:09;;;;;;;0.73;0.57;;;5.30;91.70;;;;;;5004861;28;20431;-85
2021/03/20 12:20:00;;;;;;;1.00;0.30;;;5.30;91.80;;;;;;5005255;28;20189;-85
2021/03/20 12:22:49;;;;;;;0.40;0.37;;;5.40;90.40;;;;;;5005757;28;20213;-84
2021/03/20 12:25:24;;;;;;;0.53;0.50;;;5.40;90.50;;;;;;5023918;28;20242;-85
2021/03/20 12:27:52;;;;;;;1.67;0.80;;;5.40;90.50;;;;;;5008929;28;20735;-84
2021/03/20 12:30:27;;;;;;;0.77;0.73;;;5.30;89.40;;;;;;5003872;28;20423;-84
2021/03/20 12:33:12;;;;;;;0.30;0.20;;;5.50;90.80;;;;;;5008171;28;20598;-85
2021/03/20 12:35:43;;;;;;;0.43;0.43;;;5.70;90.00;;;;;;5022034;28;20203;-85
2021/03/20 12:38:24;;;;;;;0.50;0.50;;;6.00;90.50;;;;;;5004161;28;20186;-85
2021/03/20 12:40:59;;;;;;;0.40;0.40;;;6.00;90.00;;;;;;5009621;28;20679;-85
2021/03/20 12:43:32;;;;;;;0.70;0.70;;;6.10;89.90;;;;;;5006336;28;20194;-84
2021/03/20 12:46:01;;;;;;;0.40;0.40;;;6.00;87.70;;;;;;5006420;28;20233;-85
2021/03/20 12:48:27;;;;;;;1.17;0.77;;;6.00;90.60;;;;;;5005265;28;20269;-85
2021/03/20 12:51:04;;;;;;;0.63;0.60;;;6.20;87.50;;;;;;5004175;28;20199;-86
2021/03/20 12:53:31;;;;;;;0.90;0.53;;;6.20;87.70;;;;;;5020363;28;20209;-78
2021/03/20 12:55:56;;;;;;;1.37;0.50;;;6.10;85.40;;;;;;5019366;28;20455;-81
2021/03/20 12:58:22;;;;;;;0.27;0.27;;;6.40;87.60;;;;;;5008636;28;20487;-85
2021/03/20 13:00:48;;;;;;;0.40;0.40;;;6.40;84.40;;;;;;5026527;28;20240;-85
2021/03/20 13:03:14;;;;;;;0.30;0.30;;;6.50;85.70;;;;;;5008260;28;20182;-85
2021/03/20 13:05:42;;;;;;;1.03;0.53;;;6.50;85.40;;;;;;5011375;28;20272;-85
2021/03/20 13:08:09;;;;;;;0.90;0.77;;;6.50;84.00;;;;;;5008458;28;20187;-86
2021/03/20 13:10:34;;;;;;;0.33;0.33;;;6.50;86.10;;;;;;5026982;28;20195;-86
2021/03/20 13:13:00;;;;;;;0.43;0.30;;;6.70;85.00;;;;;;5007997;28;20194;-86
2021/03/20 13:15:27;;;;;;;3.63;0.53;;;6.70;82.40;;;;;;5007061;28;20601;-87
2021/03/20 13:17:53;;;;;;;0.87;0.70;;;6.60;82.30;;;;;;5007533;28;20340;-86
2021/03/20 13:20:21;;;;;;;0.73;0.60;;;6.50;80.00;;;;;;5005964;28;20623;-86
2021/03/20 13:22:47;;;;;;;0.67;0.57;;;6.60;83.80;;;;;;5006926;28;20206;-85
2021/03/20 13:25:37;;;;;;;0.50;0.40;;;6.50;80.50;;;;;;5006866;28;20211;-86
2021/03/20 13:28:05;;;;;;;0.87;0.53;;;6.60;81.30;;;;;;5020548;28;20214;-85
2021/03/20 13:30:33;;;;;;;0.50;0.50;;;6.60;84.50;;;;;;5014533;28;20668;-86
2021/03/20 13:32:59;;;;;;;0.93;0.50;;;6.70;83.00;;;;;;5012109;28;20701;-86
2021/03/20 13:35:29;;;;;;;0.40;0.40;;;6.80;83.50;;;;;;5012350;28;20310;-86